createdAt,value
2022-11-10T00:05:15.741Z,3.9
2022-11-10T00:10:31.209Z,3.88
2022-11-10T00:15:47.341Z,3.88
2022-11-10T00:20:13.569Z,3.89
2022-11-10T00:24:53.937Z,3.88
2022-11-10T00:30:03.062Z,3.88
2022-11-10T00:35:11.544Z,3.88
2022-11-10T00:40:21.305Z,3.88
2022-11-10T00:45:29.805Z,3.89
2022-11-10T00:50:38.272Z,3.89
2022-11-10T00:55:48.024Z,3.89
2022-11-10T01:00:56.718Z,3.89
2022-11-10T01:06:05.003Z,3.91
2022-11-10T01:11:14.101Z,3.91
2022-11-10T01:16:23.860Z,3.91
2022-11-10T01:21:33.637Z,3.91
2022-11-10T01:26:42.113Z,3.91
2022-11-10T01:31:53.788Z,3.91
2022-11-10T01:37:04.853Z,3.86
2022-11-10T01:42:14.584Z,3.86
2022-11-10T01:47:23.065Z,3.87
2022-11-10T01:52:31.581Z,3.87
2022-11-10T01:57:40.665Z,3.86
2022-11-10T02:02:50.423Z,3.86
2022-11-10T02:07:59.582Z,3.85
2022-11-10T02:13:09.310Z,3.85
2022-11-10T02:18:18.421Z,3.88
2022-11-10T02:23:26.911Z,3.88
2022-11-10T02:28:36.661Z,3.87
2022-11-10T02:33:45.785Z,3.87
2022-11-10T02:38:54.261Z,3.86
2022-11-10T02:44:04.065Z,3.86
2022-11-10T02:49:12.507Z,3.89
2022-11-10T02:54:21.642Z,3.89
2022-11-10T02:59:30.112Z,3.9
2022-11-10T03:04:38.588Z,3.9
2022-11-10T03:09:47.706Z,3.85
2022-11-10T03:14:56.817Z,3.85
2022-11-10T03:20:07.236Z,3.87
2022-11-10T03:25:16.347Z,3.88
2022-11-10T03:30:26.109Z,3.88
2022-11-10T03:35:39.682Z,3.88
2022-11-10T03:41:21.300Z,3.88
2022-11-10T03:46:10.702Z,3.88
2022-11-10T03:51:26.891Z,3.88
2022-11-10T03:56:43.690Z,3.89
2022-11-10T04:01:59.207Z,3.89
2022-11-10T04:07:14.740Z,3.87
2022-11-10T04:12:30.889Z,3.87
2022-11-10T04:17:46.392Z,3.89
2022-11-10T04:23:01.296Z,3.89
2022-11-10T04:28:17.423Z,3.87
2022-11-10T04:32:43.578Z,3.87
2022-11-10T04:37:24.668Z,3.88
2022-11-10T04:42:34.427Z,3.88
2022-11-10T04:47:42.927Z,3.87
2022-11-10T04:52:52.027Z,3.87
2022-11-10T04:58:00.511Z,3.89
2022-11-10T05:03:10.259Z,3.89
2022-11-10T05:08:18.744Z,3.88
2022-11-10T05:13:27.866Z,3.88
2022-11-10T05:18:36.374Z,3.83
2022-11-10T05:23:44.829Z,3.83
2022-11-10T05:28:53.298Z,3.89
2022-11-10T05:34:01.785Z,3.89
2022-11-10T05:39:11.543Z,3.88
2022-11-10T05:44:21.293Z,3.88
2022-11-10T05:49:31.061Z,3.86
2022-11-10T05:54:39.544Z,3.86
2022-11-10T05:59:48.662Z,3.89
2022-11-10T06:04:57.780Z,3.89
2022-11-10T06:10:06.909Z,3.87
2022-11-10T06:15:16.666Z,3.87
2022-11-10T06:20:26.439Z,3.84
2022-11-10T06:25:37.576Z,3.84
2022-11-10T06:30:55.024Z,3.88
2022-11-10T06:36:10.576Z,3.83
2022-11-10T06:41:26.698Z,3.83
2022-11-10T06:46:42.855Z,3.88
2022-11-10T06:51:59.015Z,3.88
2022-11-10T06:57:13.894Z,3.87
2022-11-10T07:07:46.858Z,3.85
2022-11-10T07:13:06.815Z,3.85
2022-11-10T07:18:17.902Z,3.88
2022-11-10T07:23:34.061Z,3.88
2022-11-10T07:28:48.940Z,3.85
2022-11-10T07:33:14.434Z,3.85
2022-11-10T07:37:47.142Z,3.89
2022-11-10T07:42:56.831Z,3.89
2022-11-10T07:48:09.765Z,3.85
2022-11-10T07:53:26.121Z,3.85
2022-11-10T07:58:41.510Z,3.85
2022-11-10T08:03:56.979Z,3.85
2022-11-10T08:09:13.157Z,3.87
2022-11-10T08:14:29.259Z,3.87
2022-11-10T08:19:44.784Z,3.89
2022-11-10T08:24:59.663Z,3.89
2022-11-10T08:30:15.823Z,3.88
2022-11-10T08:35:31.988Z,3.88
2022-11-10T08:40:58.616Z,3.9
2022-11-10T08:46:01.742Z,3.9
2022-11-10T08:50:27.260Z,3.89
2022-11-10T08:55:07.701Z,3.89
2022-11-10T09:00:17.480Z,3.91
2022-11-10T09:05:27.245Z,3.91
2022-11-10T09:10:36.982Z,3.9
2022-11-10T09:16:28.338Z,3.9
2022-11-10T09:21:43.177Z,3.93
2022-11-10T09:26:58.730Z,3.93
2022-11-10T09:32:13.578Z,3.94
2022-11-10T09:37:28.495Z,3.94
2022-11-10T09:42:44.625Z,3.94
2022-11-10T09:47:12.339Z,3.93
2022-11-10T09:51:52.503Z,3.93
2022-11-10T09:57:01.190Z,3.93
2022-11-10T10:02:09.457Z,3.93
2022-11-10T10:07:18.297Z,3.92
2022-11-10T10:12:27.710Z,3.92
2022-11-10T10:17:41.737Z,3.96
2022-11-10T10:22:52.439Z,3.96
2022-11-10T10:28:09.244Z,3.91
2022-11-10T10:33:25.234Z,3.91
2022-11-10T10:38:42.675Z,3.93
2022-11-10T10:44:00.121Z,3.93
2022-11-10T10:49:36.401Z,3.96
2022-11-10T10:54:34.520Z,3.96
2022-11-10T10:59:50.679Z,3.96
2022-11-10T11:04:16.843Z,3.96
2022-11-10T11:09:07.618Z,3.94
2022-11-10T11:14:17.153Z,3.94
2022-11-10T11:19:26.267Z,3.95
2022-11-10T11:24:35.395Z,3.95
2022-11-10T11:29:43.867Z,3.98
2022-11-10T11:35:28.844Z,3.98
2022-11-10T11:41:32.445Z,3.96
2022-11-10T11:47:07.167Z,3.96
2022-11-10T11:57:41.398Z,3.97
2022-11-10T12:02:57.602Z,3.98
2022-11-10T12:08:15.813Z,3.98
2022-11-10T12:13:33.717Z,4.02
2022-11-10T12:18:51.157Z,4.02
2022-11-10T12:24:10.357Z,3.94
2022-11-10T12:29:24.121Z,3.96
2022-11-10T12:30:20.267Z,3.96
2022-11-10T12:35:30.131Z,3.96
2022-11-10T12:36:00.077Z,3.96
2022-11-10T12:40:44.355Z,3.96
2022-11-10T12:41:14.299Z,3.96
2022-11-10T12:46:02.428Z,3.96
2022-11-10T12:46:32.381Z,3.96
2022-11-10T12:51:17.972Z,3.94
2022-11-10T12:51:47.925Z,3.94
2022-11-10T12:56:32.177Z,3.94
2022-11-10T12:57:02.136Z,3.94
2022-11-10T13:01:48.563Z,4.04
2022-11-10T13:02:18.347Z,4.04
2022-11-10T13:07:20.044Z,3.96
2022-11-10T13:07:49.856Z,3.96
2022-11-10T13:12:37.976Z,3.96
2022-11-10T13:13:07.927Z,3.96
2022-11-10T13:18:07.182Z,3.97
2022-11-10T13:18:37.055Z,3.97
2022-11-10T13:23:24.358Z,3.97
2022-11-10T13:24:18.980Z,3.97
2022-11-10T13:29:27.866Z,3.98
2022-11-10T13:29:57.820Z,3.98
2022-11-10T13:34:44.668Z,3.98
2022-11-10T13:35:14.618Z,3.98
2022-11-10T13:40:05.943Z,3.99
2022-11-10T13:40:35.892Z,3.99
2022-11-10T13:45:24.670Z,3.99
2022-11-10T13:45:54.623Z,3.99
2022-11-10T13:50:44.037Z,3.96
2022-11-10T13:56:02.737Z,3.96
2022-11-10T14:09:39.597Z,3.94
2022-11-10T14:10:29.595Z,3.94
2022-11-10T14:14:54.371Z,3.94
2022-11-10T14:15:44.369Z,3.94
2022-11-10T14:20:10.551Z,3.96
2022-11-10T14:26:14.592Z,3.96
2022-11-10T14:30:42.218Z,3.96
2022-11-10T14:35:57.740Z,3.97
2022-11-10T14:41:15.494Z,4
2022-11-10T14:46:27.493Z,4
2022-11-10T14:51:45.579Z,3.99
2022-11-10T14:52:35.587Z,3.99
2022-11-10T15:05:52.793Z,3.98
2022-11-10T15:12:59.688Z,4.01
2022-11-10T15:14:54.908Z,4.01
2022-11-10T15:20:04.234Z,4.01
2022-11-10T15:21:24.017Z,4.01
2022-11-10T15:25:24.024Z,4.01
2022-11-10T15:25:53.973Z,4.01
2022-11-10T15:30:40.836Z,3.96
2022-11-10T15:31:10.778Z,3.96
2022-11-10T15:35:56.381Z,3.96
2022-11-10T15:44:25.665Z,3.96
2022-11-10T15:45:15.666Z,3.96
2022-11-10T15:49:37.581Z,3.98
2022-11-10T15:50:27.586Z,3.98
2022-11-10T15:55:16.689Z,3.98
2022-11-10T15:56:04.214Z,3.98
2022-11-10T16:01:01.644Z,3.98
2022-11-10T16:01:31.666Z,3.98
2022-11-10T16:06:18.425Z,3.98
2022-11-10T16:06:48.432Z,3.98
2022-11-10T16:11:35.235Z,3.96
2022-11-10T16:16:18.861Z,3.96
2022-11-10T16:21:35.022Z,3.97
2022-11-10T16:26:50.540Z,3.97
2022-11-10T16:32:06.702Z,3.93
2022-11-10T16:37:20.969Z,3.93
2022-11-10T16:42:35.819Z,3.94
2022-11-10T16:43:25.823Z,3.94
2022-11-10T16:50:15.816Z,3.94
2022-11-10T16:55:25.632Z,3.91
2022-11-10T16:55:55.579Z,3.91
2022-11-10T17:00:46.258Z,3.93
2022-11-10T17:01:16.247Z,3.93
2022-11-10T17:06:01.801Z,3.93
2022-11-10T17:14:32.593Z,3.93
2022-11-10T17:19:49.419Z,3.93
2022-11-10T17:25:06.837Z,3.92
2022-11-10T17:30:24.268Z,3.93
2022-11-10T17:57:37.480Z,3.95
2022-11-10T18:02:55.668Z,3.94
2022-11-10T18:03:20.184Z,3.94
2022-11-10T18:08:04.032Z,3.94
2022-11-10T18:08:33.980Z,3.94
2022-11-10T18:13:24.490Z,3.94
2022-11-10T18:13:52.417Z,3.94
2022-11-10T18:18:39.528Z,3.96
2022-11-10T18:19:09.489Z,3.96
2022-11-10T18:23:55.076Z,3.96
2022-11-10T18:24:25.012Z,3.96
2022-11-10T18:29:09.306Z,3.91
2022-11-10T18:29:39.259Z,3.91
2022-11-10T18:34:26.753Z,3.91
2022-11-10T18:34:56.700Z,3.91
2022-11-10T18:39:42.280Z,3.97
2022-11-10T18:40:12.217Z,3.97
2022-11-10T18:44:57.166Z,3.97
2022-11-10T18:53:47.725Z,3.93
2022-11-10T19:13:58.564Z,3.98
2022-11-10T19:20:54.701Z,3.98
2022-11-10T19:24:32.237Z,3.97
2022-11-10T19:29:47.663Z,3.96
2022-11-10T19:35:02.547Z,3.96
2022-11-10T19:40:17.422Z,3.96
2022-11-10T19:44:44.236Z,3.96
2022-11-10T19:49:25.303Z,3.93
2022-11-10T19:54:35.055Z,3.93
2022-11-10T19:59:44.209Z,3.93
2022-11-10T20:04:53.301Z,3.93
2022-11-10T20:10:01.804Z,3.9
2022-11-10T20:15:11.549Z,3.9
2022-11-10T20:20:20.032Z,3.89
2022-11-10T20:25:29.799Z,3.89
2022-11-10T20:30:38.940Z,3.92
2022-11-10T20:35:48.018Z,3.92
2022-11-10T20:40:57.144Z,3.9
2022-11-10T20:46:07.258Z,3.9
2022-11-10T20:51:16.026Z,3.91
2022-11-10T20:56:30.563Z,3.91
2022-11-10T21:01:35.915Z,3.91
2022-11-10T21:06:44.374Z,3.91
2022-11-10T21:11:51.892Z,3.9
2022-11-10T21:17:01.627Z,3.9
2022-11-10T21:22:10.740Z,3.88
2022-11-10T21:27:20.498Z,3.88
2022-11-10T21:32:28.981Z,3.89
2022-11-10T21:37:44.617Z,3.89
2022-11-10T21:43:01.450Z,3.9
2022-11-10T21:48:15.661Z,3.9
2022-11-10T21:53:31.212Z,3.9
2022-11-10T21:58:47.318Z,3.9
2022-11-10T22:04:03.488Z,3.88
2022-11-10T22:09:18.411Z,3.88
2022-11-10T22:14:34.540Z,3.91
2022-11-10T22:19:50.058Z,3.91
2022-11-10T22:25:05.607Z,3.91
2022-11-10T22:30:21.103Z,3.89
2022-11-10T22:35:36.618Z,3.89
2022-11-10T22:40:52.175Z,3.87
2022-11-10T22:46:07.655Z,3.87
2022-11-10T22:51:23.177Z,3.88
2022-11-10T22:55:49.369Z,3.88
2022-11-10T23:00:19.712Z,3.89
2022-11-10T23:05:32.302Z,3.89
2022-11-10T23:10:47.212Z,3.84
2022-11-10T23:16:04.005Z,3.84
2022-11-10T23:21:20.167Z,3.91
2022-11-10T23:26:36.297Z,3.91
2022-11-10T23:31:51.212Z,3.86
2022-11-10T23:37:06.055Z,3.86
2022-11-10T23:42:21.603Z,3.88
2022-11-10T23:47:38.414Z,3.88
2022-11-10T23:52:53.239Z,3.87
2022-11-10T23:57:18.811Z,3.87
